createdAt,value
2018-04-14T00:01:24.750Z,21.70
2018-04-14T00:03:52.263Z,21.70
2018-04-14T00:06:19.760Z,21.68
2018-04-14T00:08:47.248Z,21.68
2018-04-14T00:11:14.811Z,21.67
2018-04-14T00:13:42.288Z,21.67
2018-04-14T00:16:09.778Z,21.66
2018-04-14T00:18:37.277Z,21.65
2018-04-14T00:21:04.760Z,21.65
2018-04-14T00:23:32.265Z,21.64
2018-04-14T00:25:59.804Z,21.63
2018-04-14T00:28:27.307Z,21.63
2018-04-14T00:30:54.817Z,21.62
2018-04-14T00:33:22.301Z,21.61
2018-04-14T00:35:49.782Z,21.60
2018-04-14T00:38:17.435Z,21.60
2018-04-14T00:40:44.925Z,21.59
2018-04-14T00:43:12.417Z,21.58
2018-04-14T00:45:39.929Z,21.58
2018-04-14T00:48:07.427Z,21.57
2018-04-14T00:50:34.941Z,21.56
2018-04-14T00:53:14.129Z,21.56
2018-04-14T00:55:41.634Z,21.54
2018-04-14T00:58:09.145Z,21.55
2018-04-14T01:00:36.658Z,21.54
2018-04-14T01:03:04.165Z,21.53
2018-04-14T01:05:31.641Z,21.52
2018-04-14T01:07:59.153Z,21.52
2018-04-14T01:10:26.645Z,21.51
2018-04-14T01:12:54.151Z,21.51
2018-04-14T01:15:21.660Z,21.49
2018-04-14T01:17:49.149Z,21.50
2018-04-14T01:20:16.661Z,21.48
2018-04-14T01:22:44.155Z,21.48
2018-04-14T01:25:11.637Z,21.47
2018-04-14T01:27:39.170Z,21.47
2018-04-14T01:30:06.652Z,21.46
2018-04-14T01:32:34.182Z,21.45
2018-04-14T01:35:01.677Z,21.44
2018-04-14T01:37:29.166Z,21.44
2018-04-14T01:39:56.692Z,21.44
2018-04-14T01:42:24.172Z,21.44
2018-04-14T01:44:51.698Z,21.44
2018-04-14T01:47:19.191Z,21.42
2018-04-14T01:49:46.677Z,21.41
2018-04-14T01:52:14.188Z,21.40
2018-04-14T01:54:41.670Z,21.39
2018-04-14T01:57:09.180Z,21.38
2018-04-14T01:59:36.664Z,21.37
2018-04-14T02:02:04.165Z,21.38
2018-04-14T02:04:31.673Z,21.37
2018-04-14T02:06:59.166Z,21.36
2018-04-14T02:09:26.681Z,21.36
2018-04-14T02:11:54.166Z,21.35
2018-04-14T02:14:21.648Z,21.34
2018-04-14T02:16:49.209Z,21.34
2018-04-14T02:19:16.699Z,21.33
2018-04-14T02:21:44.212Z,21.32
2018-04-14T02:24:11.701Z,21.31
2018-04-14T02:26:39.198Z,21.31
2018-04-14T02:29:06.733Z,21.31
2018-04-14T02:31:34.249Z,21.31
2018-04-14T02:34:01.778Z,21.31
2018-04-14T02:36:29.273Z,21.31
2018-04-14T02:38:56.772Z,21.29
2018-04-14T02:41:24.285Z,21.29
2018-04-14T02:43:51.774Z,21.27
2018-04-14T02:46:19.295Z,21.27
2018-04-14T02:48:46.777Z,21.27
2018-04-14T02:51:14.270Z,21.25
2018-04-14T02:53:41.789Z,21.24
2018-04-14T02:56:09.285Z,21.24
2018-04-14T02:58:36.802Z,21.23
2018-04-14T03:01:04.295Z,21.23
2018-04-14T03:03:31.788Z,21.23
2018-04-14T03:05:59.292Z,21.22
2018-04-14T03:08:26.807Z,21.22
2018-04-14T03:10:54.331Z,21.22
2018-04-14T03:13:21.808Z,21.21
2018-04-14T03:15:49.288Z,21.21
2018-04-14T03:18:16.793Z,21.19
2018-04-14T03:20:44.301Z,21.18
2018-04-14T03:23:11.820Z,21.18
2018-04-14T03:25:39.314Z,21.19
2018-04-14T03:28:06.802Z,21.18
2018-04-14T03:30:34.314Z,21.18
2018-04-14T03:33:01.801Z,21.18
2018-04-14T03:35:29.313Z,21.17
2018-04-14T03:37:56.798Z,21.16
2018-04-14T03:40:24.301Z,21.15
2018-04-14T03:42:51.803Z,21.15
2018-04-14T03:45:19.291Z,21.15
2018-04-14T03:47:46.802Z,21.14
2018-04-14T03:50:14.297Z,21.14
2018-04-14T03:52:41.801Z,21.13
2018-04-14T03:55:09.318Z,21.13
2018-04-14T03:57:36.809Z,21.12
2018-04-14T04:00:04.480Z,21.12
2018-04-14T04:02:31.970Z,21.10
2018-04-14T04:04:59.458Z,21.11
2018-04-14T04:07:26.960Z,21.10
2018-04-14T04:09:54.444Z,21.07
2018-04-14T04:12:21.959Z,21.08
2018-04-14T04:14:49.465Z,21.09
2018-04-14T04:17:16.954Z,21.08
2018-04-14T04:19:56.298Z,21.07
2018-04-14T04:22:35.622Z,21.06
2018-04-14T04:25:13.557Z,21.06
2018-04-14T04:27:41.931Z,21.05
2018-04-14T04:30:09.450Z,21.05
2018-04-14T04:32:36.973Z,21.04
2018-04-14T04:35:04.468Z,21.04
2018-04-14T04:37:31.980Z,21.02
2018-04-14T04:39:59.460Z,21.02
2018-04-14T04:42:26.969Z,20.95
2018-04-14T04:44:54.458Z,21.01
2018-04-14T04:47:21.949Z,21.01
2018-04-14T04:49:49.463Z,21.01
2018-04-14T04:52:16.953Z,21.00
2018-04-14T04:54:44.478Z,21.00
2018-04-14T04:57:11.956Z,21.00
2018-04-14T04:59:39.441Z,21.00
2018-04-14T05:02:06.945Z,20.98
2018-04-14T05:04:34.434Z,20.99
2018-04-14T05:07:02.254Z,20.97
2018-04-14T05:09:29.750Z,20.98
2018-04-14T05:11:57.244Z,20.97
2018-04-14T05:14:24.756Z,20.97
2018-04-14T05:16:52.243Z,20.96
2018-04-14T05:19:19.754Z,20.97
2018-04-14T05:21:47.263Z,20.97
2018-04-14T05:24:14.826Z,20.97
2018-04-14T05:26:42.324Z,20.96
2018-04-14T05:29:09.818Z,20.96
2018-04-14T05:31:37.329Z,20.96
2018-04-14T05:34:04.822Z,20.96
2018-04-14T05:36:32.314Z,20.96
2018-04-14T05:38:59.816Z,20.97
2018-04-14T05:41:27.301Z,20.95
2018-04-14T05:43:54.882Z,20.96
2018-04-14T05:46:22.374Z,20.96
2018-04-14T05:48:49.853Z,20.96
2018-04-14T05:51:17.353Z,20.96
2018-04-14T05:53:44.847Z,20.97
2018-04-14T05:56:12.357Z,20.96
2018-04-14T05:58:39.841Z,20.97
2018-04-14T06:01:07.324Z,21.59
2018-04-14T06:03:34.835Z,22.00
2018-04-14T06:06:02.362Z,22.29
2018-04-14T06:08:29.884Z,22.57
2018-04-14T06:10:57.475Z,22.93
2018-04-14T06:13:25.000Z,23.41
2018-04-14T06:15:52.510Z,23.92
2018-04-14T06:18:20.014Z,24.43
2018-04-14T06:20:47.534Z,24.91
2018-04-14T06:23:15.020Z,25.37
2018-04-14T06:25:42.513Z,25.82
2018-04-14T06:28:10.052Z,26.26
2018-04-14T06:30:37.546Z,26.65
2018-04-14T06:33:05.061Z,27.01
2018-04-14T06:35:32.544Z,27.31
2018-04-14T06:38:00.033Z,27.56
2018-04-14T06:40:27.577Z,27.72
2018-04-14T06:42:55.065Z,27.81
2018-04-14T06:45:22.570Z,27.82
2018-04-14T06:47:50.110Z,27.78
2018-04-14T06:50:17.627Z,27.79
2018-04-14T06:52:45.143Z,27.92
2018-04-14T06:55:12.654Z,28.16
2018-04-14T06:57:40.168Z,28.39
2018-04-14T07:00:07.686Z,28.63
2018-04-14T07:02:35.198Z,28.91
2018-04-14T07:05:02.709Z,29.11
2018-04-14T07:07:30.230Z,29.33
2018-04-14T07:09:57.747Z,29.52
2018-04-14T07:12:25.299Z,29.66
2018-04-14T07:14:52.785Z,29.79
2018-04-14T07:17:20.272Z,29.98
2018-04-14T07:19:47.798Z,30.05
2018-04-14T07:22:15.281Z,30.04
2018-04-14T07:24:42.788Z,30.03
2018-04-14T07:27:10.298Z,29.96
2018-04-14T07:29:37.781Z,29.85
2018-04-14T07:32:05.282Z,29.82
2018-04-14T07:34:32.783Z,29.94
2018-04-14T07:37:00.300Z,30.08
2018-04-14T07:39:27.799Z,30.29
2018-04-14T07:41:55.290Z,30.52
2018-04-14T07:44:22.818Z,30.66
2018-04-14T07:46:50.304Z,30.85
2018-04-14T07:49:17.820Z,31.05
2018-04-14T07:51:45.301Z,31.23
2018-04-14T07:54:12.790Z,31.26
2018-04-14T07:56:40.304Z,31.47
2018-04-14T07:59:07.783Z,30.99
2018-04-14T08:01:35.299Z,31.18
2018-04-14T08:04:02.797Z,31.02
2018-04-14T08:06:30.285Z,30.71
2018-04-14T08:08:57.812Z,30.73
2018-04-14T08:11:25.306Z,30.83
2018-04-14T08:13:52.817Z,30.83
2018-04-14T08:16:20.306Z,31.12
2018-04-14T08:18:48.690Z,31.27
2018-04-14T08:21:16.207Z,31.33
2018-04-14T08:23:44.682Z,31.54
2018-04-14T08:26:13.130Z,31.83
2018-04-14T08:28:40.612Z,31.91
2018-04-14T08:31:08.092Z,31.75
2018-04-14T08:33:35.609Z,31.72
2018-04-14T08:36:03.152Z,31.67
2018-04-14T08:38:30.661Z,31.85
2018-04-14T08:40:58.144Z,31.69
2018-04-14T08:43:25.633Z,31.50
2018-04-14T08:45:53.146Z,31.35
2018-04-14T08:48:20.629Z,31.42
2018-04-14T08:50:48.142Z,31.70
2018-04-14T08:53:15.633Z,31.85
2018-04-14T08:55:43.120Z,31.88
2018-04-14T08:58:10.640Z,32.15
2018-04-14T09:00:38.135Z,32.26
2018-04-14T09:03:05.655Z,32.16
2018-04-14T09:05:33.141Z,32.06
2018-04-14T09:08:00.628Z,32.02
2018-04-14T09:10:28.134Z,31.77
2018-04-14T09:12:55.625Z,31.47
2018-04-14T09:15:23.124Z,31.10
2018-04-14T09:17:50.619Z,31.05
2018-04-14T09:20:18.115Z,31.11
2018-04-14T09:22:46.542Z,31.14
2018-04-14T09:25:14.044Z,31.08
2018-04-14T09:27:41.562Z,30.84
2018-04-14T09:30:09.077Z,30.73
2018-04-14T09:32:36.622Z,30.73
2018-04-14T09:35:04.129Z,30.83
2018-04-14T09:37:31.630Z,30.79
2018-04-14T09:39:59.169Z,30.68
2018-04-14T09:42:26.657Z,30.63
2018-04-14T09:44:54.148Z,30.49
2018-04-14T09:47:21.662Z,30.30
2018-04-14T09:49:49.145Z,30.23
2018-04-14T09:52:16.671Z,30.20
2018-04-14T09:54:44.186Z,30.30
2018-04-14T09:57:11.669Z,30.65
2018-04-14T09:59:39.204Z,30.95
2018-04-14T10:02:16.617Z,31.08
2018-04-14T10:04:44.126Z,30.90
2018-04-14T10:07:11.617Z,30.95
2018-04-14T10:09:39.126Z,30.99
2018-04-14T10:12:06.617Z,31.02
2018-04-14T10:14:34.105Z,30.92
2018-04-14T10:17:02.505Z,30.78
2018-04-14T10:19:30.007Z,30.35
2018-04-14T10:21:57.530Z,30.18
2018-04-14T10:24:25.023Z,29.74
2018-04-14T10:26:52.514Z,29.09
2018-04-14T10:29:20.029Z,28.50
2018-04-14T10:31:47.530Z,28.09
2018-04-14T10:34:15.061Z,27.79
2018-04-14T10:36:42.564Z,27.59
2018-04-14T10:39:10.049Z,27.40
2018-04-14T10:41:37.577Z,27.25
2018-04-14T10:44:05.060Z,27.15
2018-04-14T10:46:32.578Z,27.04
2018-04-14T10:49:00.065Z,26.97
2018-04-14T10:51:27.540Z,26.89
2018-04-14T10:53:55.054Z,26.85
2018-04-14T10:56:22.586Z,26.80
2018-04-14T10:58:50.103Z,26.73
2018-04-14T11:01:17.594Z,26.67
2018-04-14T11:03:45.134Z,26.60
2018-04-14T11:06:12.644Z,26.24
2018-04-14T11:08:40.138Z,26.47
2018-04-14T11:11:07.673Z,26.42
2018-04-14T11:13:35.171Z,26.39
2018-04-14T11:16:02.679Z,26.32
2018-04-14T11:18:30.184Z,26.23
2018-04-14T11:20:57.674Z,26.15
2018-04-14T11:23:25.199Z,26.10
2018-04-14T11:25:52.691Z,26.09
2018-04-14T11:28:21.373Z,25.89
2018-04-14T11:30:48.969Z,26.08
2018-04-14T11:33:16.456Z,26.07
2018-04-14T11:35:45.713Z,26.03
2018-04-14T11:38:13.222Z,25.97
2018-04-14T11:40:40.707Z,25.84
2018-04-14T11:43:08.213Z,25.82
2018-04-14T11:45:35.705Z,25.75
2018-04-14T11:48:03.217Z,25.68
2018-04-14T11:50:30.801Z,25.60
2018-04-14T11:52:58.297Z,25.52
2018-04-14T11:55:25.818Z,25.53
2018-04-14T11:57:53.309Z,25.51
2018-04-14T12:00:20.820Z,25.52
2018-04-14T12:02:48.304Z,25.51
2018-04-14T12:05:15.789Z,25.51
2018-04-14T12:07:43.302Z,25.48
2018-04-14T12:10:10.789Z,25.43
2018-04-14T12:12:38.295Z,25.36
2018-04-14T12:15:05.785Z,25.36
2018-04-14T12:17:33.268Z,25.34
2018-04-14T12:20:00.782Z,25.38
2018-04-14T12:22:28.332Z,25.36
2018-04-14T12:24:55.849Z,25.31
2018-04-14T12:27:23.341Z,25.28
2018-04-14T12:29:50.826Z,25.31
2018-04-14T12:32:18.328Z,25.34
2018-04-14T12:34:45.831Z,25.38
2018-04-14T12:37:13.350Z,25.40
2018-04-14T12:39:40.849Z,25.36
2018-04-14T12:42:08.350Z,25.31
2018-04-14T12:44:35.862Z,25.29
2018-04-14T12:47:03.386Z,25.28
2018-04-14T12:49:30.906Z,25.23
2018-04-14T12:51:58.390Z,25.23
2018-04-14T12:54:25.885Z,25.23
2018-04-14T12:56:53.400Z,25.21
2018-04-14T12:59:20.893Z,25.19
2018-04-14T13:01:48.419Z,25.20
2018-04-14T13:04:15.909Z,25.21
2018-04-14T13:06:50.029Z,25.21
2018-04-14T13:09:17.710Z,25.17
2018-04-14T13:11:45.206Z,25.15
2018-04-14T13:14:12.712Z,25.15
2018-04-14T13:16:40.295Z,25.15
2018-04-14T13:19:07.836Z,25.12
2018-04-14T13:21:35.317Z,25.08
2018-04-14T13:24:02.802Z,25.06
2018-04-14T13:26:30.317Z,25.07
2018-04-14T13:28:57.822Z,25.07
2018-04-14T13:31:25.347Z,25.05
2018-04-14T13:33:52.833Z,25.03
2018-04-14T13:36:20.332Z,25.00
2018-04-14T13:38:47.892Z,24.98
2018-04-14T13:41:15.386Z,24.94
2018-04-14T13:43:42.873Z,24.93
2018-04-14T13:46:10.405Z,24.90
2018-04-14T13:48:37.899Z,24.90
2018-04-14T13:51:05.419Z,24.90
2018-04-14T13:53:32.934Z,24.90
2018-04-14T13:56:00.423Z,24.87
2018-04-14T13:58:27.930Z,24.85
2018-04-14T14:00:55.454Z,24.84
2018-04-14T14:03:22.937Z,24.83
2018-04-14T14:05:50.449Z,24.81
2018-04-14T14:08:17.953Z,24.78
2018-04-14T14:10:45.447Z,24.78
2018-04-14T14:13:12.974Z,24.77
2018-04-14T14:15:40.462Z,24.77
2018-04-14T14:18:07.973Z,24.76
2018-04-14T14:20:35.458Z,24.76
2018-04-14T14:23:02.953Z,24.76
2018-04-14T14:25:30.482Z,24.84
2018-04-14T14:27:57.973Z,24.97
2018-04-14T14:30:25.480Z,25.45
2018-04-14T14:32:52.992Z,25.97
2018-04-14T14:35:20.480Z,26.30
2018-04-14T14:37:48.847Z,26.52
2018-04-14T14:40:16.334Z,26.70
2018-04-14T14:42:43.870Z,26.80
2018-04-14T14:45:11.341Z,26.88
2018-04-14T14:47:38.830Z,26.94
2018-04-14T14:50:11.811Z,27.00
2018-04-14T14:52:39.312Z,27.08
2018-04-14T14:55:06.829Z,27.13
2018-04-14T14:57:34.312Z,27.14
2018-04-14T15:00:01.810Z,27.15
2018-04-14T15:02:29.330Z,27.17
2018-04-14T15:04:56.840Z,27.19
2018-04-14T15:07:24.448Z,27.21
2018-04-14T15:09:51.946Z,27.13
2018-04-14T15:12:19.436Z,26.75
2018-04-14T15:14:46.953Z,26.76
2018-04-14T15:17:14.450Z,26.53
2018-04-14T15:19:41.974Z,26.40
2018-04-14T15:22:09.456Z,26.27
2018-04-14T15:24:36.950Z,26.11
2018-04-14T15:27:04.470Z,26.02
2018-04-14T15:29:31.965Z,25.91
2018-04-14T15:31:59.472Z,25.82
2018-04-14T15:34:26.996Z,25.75
2018-04-14T15:36:54.491Z,25.68
2018-04-14T15:39:22.001Z,25.59
2018-04-14T15:41:49.499Z,25.54
2018-04-14T15:44:17.013Z,25.48
2018-04-14T15:46:44.501Z,25.35
2018-04-14T15:49:11.993Z,25.22
2018-04-14T15:51:39.504Z,25.16
2018-04-14T15:54:06.997Z,25.11
2018-04-14T15:56:34.513Z,25.05
2018-04-14T15:59:02.012Z,25.02
2018-04-14T16:01:29.490Z,24.99
2018-04-14T16:03:57.006Z,24.99
2018-04-14T16:06:24.494Z,24.94
2018-04-14T16:08:52.009Z,24.90
2018-04-14T16:11:19.561Z,24.88
2018-04-14T16:13:47.026Z,24.84
2018-04-14T16:16:14.532Z,24.81
2018-04-14T16:18:42.085Z,24.79
2018-04-14T16:21:09.606Z,24.75
2018-04-14T16:23:37.142Z,24.76
2018-04-14T16:26:04.613Z,24.73
2018-04-14T16:28:32.200Z,24.69
2018-04-14T16:30:59.749Z,24.68
2018-04-14T16:33:27.266Z,24.66
2018-04-14T16:35:54.754Z,24.63
2018-04-14T16:38:22.244Z,24.61
2018-04-14T16:40:49.751Z,24.59
2018-04-14T16:43:17.253Z,24.57
2018-04-14T16:45:44.768Z,24.56
2018-04-14T16:48:12.282Z,24.54
2018-04-14T16:50:39.770Z,24.54
2018-04-14T16:53:07.283Z,24.47
2018-04-14T16:55:34.764Z,24.52
2018-04-14T16:58:02.283Z,24.49
2018-04-14T17:00:29.769Z,24.47
2018-04-14T17:02:57.257Z,24.46
2018-04-14T17:05:24.773Z,24.44
2018-04-14T17:07:52.253Z,24.43
2018-04-14T17:10:19.805Z,24.32
2018-04-14T17:12:47.268Z,24.36
2018-04-14T17:15:14.757Z,24.39
2018-04-14T17:17:42.270Z,24.37
2018-04-14T17:20:09.766Z,24.34
2018-04-14T17:22:37.304Z,24.32
2018-04-14T17:25:04.798Z,24.30
2018-04-14T17:27:32.285Z,24.27
2018-04-14T17:29:59.794Z,24.25
2018-04-14T17:32:27.290Z,24.24
2018-04-14T17:34:54.820Z,24.21
2018-04-14T17:37:22.314Z,24.19
2018-04-14T17:39:49.797Z,24.16
2018-04-14T17:42:17.309Z,24.16
2018-04-14T17:44:44.789Z,24.15
2018-04-14T17:47:12.301Z,24.14
2018-04-14T17:49:39.790Z,24.11
2018-04-14T17:52:07.272Z,24.10
2018-04-14T17:54:34.768Z,24.07
2018-04-14T17:57:02.321Z,24.05
2018-04-14T17:59:29.828Z,24.05
2018-04-14T18:01:57.386Z,24.04
2018-04-14T18:04:25.817Z,24.04
2018-04-14T18:06:54.286Z,24.04
2018-04-14T18:09:21.769Z,24.02
2018-04-14T18:11:49.284Z,24.01
2018-04-14T18:14:16.829Z,23.99
2018-04-14T18:16:44.369Z,23.99
2018-04-14T18:19:11.877Z,23.94
2018-04-14T18:21:39.362Z,23.96
2018-04-14T18:24:06.868Z,23.94
2018-04-14T18:26:34.353Z,23.93
2018-04-14T18:29:01.885Z,23.91
2018-04-14T18:31:29.452Z,23.91
2018-04-14T18:33:56.940Z,23.89
2018-04-14T18:36:24.754Z,23.87
2018-04-14T18:38:52.809Z,23.86
2018-04-14T18:41:20.753Z,23.84
2018-04-14T18:43:48.694Z,23.84
2018-04-14T18:46:16.285Z,23.84
2018-04-14T18:48:43.844Z,23.83
2018-04-14T18:51:11.324Z,23.83
2018-04-14T18:53:38.817Z,23.82
2018-04-14T18:56:06.325Z,23.81
2018-04-14T18:58:33.923Z,23.81
2018-04-14T19:01:01.625Z,23.80
2018-04-14T19:03:29.134Z,23.80
2018-04-14T19:05:56.621Z,23.81
2018-04-14T19:08:24.320Z,23.81
2018-04-14T19:10:51.975Z,23.80
2018-04-14T19:13:19.544Z,23.80
2018-04-14T19:15:47.087Z,23.80
2018-04-14T19:18:14.574Z,23.79
2018-04-14T19:20:42.094Z,23.80
2018-04-14T19:23:09.609Z,23.79
2018-04-14T19:25:37.117Z,23.79
2018-04-14T19:28:04.681Z,23.78
2018-04-14T19:30:32.436Z,23.77
2018-04-14T19:33:00.074Z,23.76
2018-04-14T19:35:27.857Z,23.76
2018-04-14T19:37:55.440Z,23.76
2018-04-14T19:40:22.994Z,23.75
2018-04-14T19:42:50.593Z,23.74
2018-04-14T19:45:18.496Z,23.74
2018-04-14T19:47:46.015Z,23.73
2018-04-14T19:50:13.541Z,23.73
2018-04-14T19:52:41.041Z,23.72
2018-04-14T19:55:08.525Z,23.72
2018-04-14T19:57:36.363Z,23.72
2018-04-14T20:00:03.925Z,23.71
2018-04-14T20:02:31.438Z,23.70
2018-04-14T20:04:58.916Z,23.70
2018-04-14T20:07:26.755Z,23.69
2018-04-14T20:09:54.338Z,23.68
2018-04-14T20:12:21.826Z,23.68
2018-04-14T20:14:50.262Z,23.67
2018-04-14T20:17:18.123Z,23.67
2018-04-14T20:19:45.659Z,23.66
2018-04-14T20:22:13.141Z,23.65
2018-04-14T20:24:40.661Z,23.65
2018-04-14T20:27:08.145Z,23.63
2018-04-14T20:29:35.671Z,23.63
2018-04-14T20:32:03.233Z,23.62
2018-04-14T20:34:30.725Z,23.59
2018-04-14T20:36:58.238Z,23.60
2018-04-14T20:39:25.722Z,23.60
2018-04-14T20:41:53.267Z,23.59
2018-04-14T20:44:20.753Z,23.57
2018-04-14T20:46:48.268Z,23.57
2018-04-14T20:49:15.787Z,23.57
2018-04-14T20:51:43.268Z,23.56
2018-04-14T20:54:10.780Z,23.55
2018-04-14T20:56:38.300Z,23.56
2018-04-14T20:59:05.790Z,23.55
2018-04-14T21:01:33.326Z,23.54
2018-04-14T21:04:00.817Z,23.52
2018-04-14T21:06:28.333Z,23.52
2018-04-14T21:08:55.835Z,23.51
2018-04-14T21:11:23.352Z,23.51
2018-04-14T21:13:50.887Z,23.51
2018-04-14T21:16:18.369Z,23.50
2018-04-14T21:18:45.899Z,23.49
2018-04-14T21:21:13.387Z,23.48
2018-04-14T21:23:40.883Z,23.47
2018-04-14T21:26:08.397Z,23.46
2018-04-14T21:28:35.885Z,23.45
2018-04-14T21:31:03.398Z,23.44
2018-04-14T21:33:30.887Z,23.44
2018-04-14T21:35:58.376Z,23.45
2018-04-14T21:38:25.945Z,23.44
2018-04-14T21:40:53.435Z,23.43
2018-04-14T21:43:20.961Z,23.42
2018-04-14T21:45:48.453Z,23.41
2018-04-14T21:48:15.937Z,23.39
2018-04-14T21:50:43.449Z,23.38
2018-04-14T21:53:10.974Z,23.39
2018-04-14T21:55:38.502Z,23.38
2018-04-14T21:58:05.999Z,23.37
2018-04-14T22:00:33.494Z,23.36
2018-04-14T22:03:01.059Z,23.34
2018-04-14T22:05:28.548Z,23.35
2018-04-14T22:07:57.014Z,23.35
2018-04-14T22:10:24.505Z,23.34
2018-04-14T22:12:51.989Z,23.32
2018-04-14T22:15:19.484Z,23.32
2018-04-14T22:17:46.965Z,23.31
2018-04-14T22:20:14.486Z,23.30
2018-04-14T22:22:41.971Z,23.30
2018-04-14T22:25:09.463Z,23.29
2018-04-14T22:27:36.965Z,23.28
2018-04-14T22:30:04.487Z,23.27
2018-04-14T22:32:32.000Z,23.27
2018-04-14T22:34:59.485Z,23.26
2018-04-14T22:37:27.021Z,23.26
2018-04-14T22:39:54.528Z,23.24
2018-04-14T22:42:22.017Z,23.23
2018-04-14T22:44:49.528Z,23.22
2018-04-14T22:47:17.010Z,23.21
2018-04-14T22:49:44.494Z,23.20
2018-04-14T22:52:11.985Z,23.20
2018-04-14T22:54:39.463Z,23.19
2018-04-14T22:57:06.968Z,23.18
2018-04-14T22:59:34.458Z,23.17
2018-04-14T23:02:01.943Z,23.16
2018-04-14T23:04:29.453Z,23.14
2018-04-14T23:06:56.936Z,23.15
2018-04-14T23:09:24.454Z,23.14
2018-04-14T23:11:51.936Z,23.13
2018-04-14T23:14:19.424Z,23.12
2018-04-14T23:16:46.940Z,23.11
2018-04-14T23:19:14.461Z,23.10
2018-04-14T23:21:41.948Z,23.09
2018-04-14T23:24:09.436Z,23.09
2018-04-14T23:26:36.921Z,23.07
2018-04-14T23:29:04.437Z,23.07
2018-04-14T23:31:31.926Z,23.06
2018-04-14T23:33:59.446Z,23.05
2018-04-14T23:36:27.829Z,23.04
2018-04-14T23:38:55.322Z,23.03
2018-04-14T23:41:22.839Z,23.01
2018-04-14T23:43:50.328Z,23.01
2018-04-14T23:46:17.836Z,22.98
2018-04-14T23:48:45.324Z,22.98
2018-04-14T23:51:12.822Z,22.98
2018-04-14T23:53:40.324Z,22.97
2018-04-14T23:56:07.813Z,22.96
2018-04-14T23:58:35.322Z,22.95
